Time;durP1;ratioP1;P1;durP2;ratioP2;P2;SDS_P1;SDS_P2;PMS_P1;PMS_P2;Temp;Humidity;BMP_temperature;BMP_pressure;BME280_temperature;BME280_humidity;BME280_pressure;Samples;Min_cycle;Max_cycle;Signal;HPM_P1;HPM_P2
2022/11/11 00:00:00;;;;;;;10.02;5.60;;;;;;;3.23;100.00;99915.81;4220676;28;20514;-72
2022/11/11 00:02:01;;;;;;;7.63;3.72;;;;;;;3.36;100.00;99904.13;4221315;28;20043;-72
2022/11/11 00:04:01;;;;;;;8.70;3.55;;;;;;;3.61;100.00;99913.06;4220543;27;20049;-72
2022/11/11 00:06:04;;;;;;;9.55;4.45;;;;;;;3.90;100.00;99913.72;4220946;28;20031;-72
2022/11/11 00:08:04;;;;;;;;;;;;;;;4.06;100.00;99911.53;4220689;28;20472;-72
2022/11/11 00:10:05;;;;;;;6.97;3.33;;;;;;;4.12;100.00;99907.56;4220603;28;20068;-72
2022/11/11 00:12:06;;;;;;;8.18;3.72;;;;;;;4.18;100.00;99905.56;4220826;28;20776;-71
2022/11/11 00:14:06;;;;;;;8.07;3.70;;;;;;;4.22;100.00;99912.09;4220297;28;20034;-72
2022/11/11 00:16:09;;;;;;;13.07;4.32;;;;;;;4.22;100.00;99906.59;4221224;28;20452;-72
2022/11/11 00:25:08;;;;;;;11.07;2.90;;;;;;;4.29;100.00;99911.66;4220374;28;20149;-72
2022/11/11 00:27:10;;;;;;;5.65;2.60;;;;;;;4.42;100.00;99916.38;4220148;28;20070;-72
2022/11/11 00:29:11;;;;;;;6.47;3.13;;;;;;;4.51;100.00;99917.28;4219836;28;20383;-72
2022/11/11 00:31:12;;;;;;;7.25;2.75;;;;;;;4.65;100.00;99915.38;4220671;28;20050;-72
2022/11/11 00:33:13;;;;;;;8.38;3.33;;;;;;;4.71;100.00;99927.84;4219422;28;20586;-72
2022/11/11 00:37:33;;;;;;;6.97;3.80;;;;;;;4.57;96.32;99926.25;4221426;27;20494;-72
2022/11/11 00:39:33;;;;;;;12.10;4.38;;;;;;;4.41;97.06;99932.00;4220188;28;20098;-72
2022/11/11 00:41:34;;;;;;;9.95;4.38;;;;;;;4.27;97.72;99933.91;4219639;28;20040;-72
2022/11/11 00:43:34;;;;;;;9.60;5.60;;;;;;;4.11;97.55;99938.81;4220144;28;20112;-72
2022/11/11 00:45:34;;;;;;;7.22;4.63;;;;;;;3.99;97.86;99934.94;4219891;28;20040;-72
2022/11/11 00:52:14;;;;;;;7.72;4.90;;;;;;;3.69;99.53;99944.44;4219513;28;20042;-73
2022/11/11 00:54:14;;;;;;;7.40;4.70;;;;;;;3.63;99.52;99944.50;4220033;28;20024;-72
2022/11/11 00:56:14;;;;;;;8.10;4.80;;;;;;;3.57;100.00;99948.44;4220693;28;20081;-72
2022/11/11 00:58:15;;;;;;;8.05;4.95;;;;;;;3.55;100.00;99942.44;4219694;28;20471;-72
2022/11/11 01:00:16;;;;;;;9.88;4.88;;;;;;;3.58;100.00;99941.03;4218847;28;20027;-72
2022/11/11 01:02:16;;;;;;;10.30;4.72;;;;;;;3.60;100.00;99944.28;4219719;28;20450;-72
2022/11/11 01:04:16;;;;;;;12.32;5.00;;;;;;;3.55;100.00;99941.63;4220144;27;20053;-72
2022/11/11 01:06:17;;;;;;;9.20;5.18;;;;;;;3.56;100.00;99938.59;4220004;28;20945;-72
2022/11/11 01:08:17;;;;;;;10.73;4.90;;;;;;;3.52;100.00;99932.09;4219740;28;20042;-72
2022/11/11 01:12:37;;;;;;;9.15;4.47;;;;;;;3.54;100.00;99926.31;4219362;28;20077;-72
2022/11/11 01:14:37;;;;;;;9.52;4.72;;;;;;;3.49;100.00;99935.44;4219609;28;20047;-72
2022/11/11 01:16:38;;;;;;;7.82;4.70;;;;;;;3.48;100.00;99944.75;4219721;28;20531;-72
2022/11/11 01:18:38;;;;;;;8.02;4.20;;;;;;;3.45;100.00;99944.50;4219437;28;20046;-72
2022/11/11 01:20:40;;;;;;;7.75;4.50;;;;;;;3.41;100.00;99947.03;4219753;28;20476;-72
2022/11/11 01:22:40;;;;;;;6.68;4.38;;;;;;;3.47;100.00;99947.75;4218365;28;20063;-72
2022/11/11 01:24:41;;;;;;;8.40;4.40;;;;;;;3.43;100.00;99933.88;4219148;28;20051;-72
2022/11/11 01:26:41;;;;;;;9.18;5.10;;;;;;;3.36;100.00;99934.22;4219653;28;20043;-72
2022/11/11 01:28:42;;;;;;;9.15;5.30;;;;;;;3.42;100.00;99934.16;4219323;28;20334;-72
2022/11/11 01:30:42;;;;;;;10.98;4.72;;;;;;;3.32;100.00;99932.38;4219280;28;20665;-72
2022/11/11 01:32:43;;;;;;;7.05;4.53;;;;;;;3.31;100.00;99941.69;4218381;28;20126;-72
2022/11/11 01:34:44;;;;;;;11.27;5.13;;;;;;;3.30;100.00;99940.06;4219366;28;20036;-72
2022/11/11 01:36:44;;;;;;;6.90;3.90;;;;;;;3.36;100.00;99933.41;4219745;28;20043;-72
2022/11/11 01:38:49;;;;;;;9.80;4.00;;;;;;;3.44;100.00;99934.66;4220491;28;20039;-72
2022/11/11 01:40:49;;;;;;;7.97;4.00;;;;;;;3.42;100.00;99943.19;4219479;28;20400;-72
2022/11/11 01:43:03;;;;;;;8.02;4.53;;;;;;;3.34;100.00;99946.56;4218729;28;20362;-72
2022/11/11 01:45:42;;;;;;;8.63;4.28;;;;;;;3.31;100.00;99934.31;4219242;28;20096;-72
2022/11/11 01:50:02;;;;;;;9.93;4.20;;;;;;;3.27;100.00;99936.00;4218990;28;20390;-72
2022/11/11 01:52:08;;;;;;;9.60;4.72;;;;;;;3.24;100.00;99933.03;4218983;28;20110;-72
2022/11/11 01:54:36;;;;;;;11.23;5.00;;;;;;;3.28;100.00;99928.59;4216734;28;20024;-72
2022/11/11 01:56:39;;;;;;;10.30;4.63;;;;;;;3.25;100.00;99930.00;4216282;28;20044;-72
2022/11/11 01:58:40;;;;;;;9.40;6.13;;;;;;;3.24;100.00;99933.03;4219090;28;20039;-72
2022/11/11 02:00:41;;;;;;;7.28;4.72;;;;;;;3.21;100.00;99933.63;4219451;28;20075;-72
2022/11/11 02:02:50;;;;;;;8.73;4.80;;;;;;;3.17;100.00;99924.38;4219151;28;20372;-72
2022/11/11 02:07:12;;;;;;;8.38;4.53;;;;;;;3.05;100.00;99933.81;4219317;28;20058;-72
2022/11/11 02:09:12;;;;;;;10.13;5.18;;;;;;;3.01;100.00;99931.97;4219171;28;20044;-72
2022/11/11 02:14:34;;;;;;;9.68;5.03;;;;;;;3.04;100.00;99921.25;4219897;28;20100;-72
2022/11/11 02:15:59;;;;;;;8.63;4.53;;;;;;;2.97;100.00;99915.31;4219198;28;19980;-72
2022/11/11 02:18:00;;;;;;;9.02;4.55;;;;;;;2.98;100.00;99913.41;4219531;28;20056;-72
2022/11/11 02:20:03;;;;;;;11.63;4.63;;;;;;;2.99;100.00;99910.38;4219177;28;20055;-72
2022/11/11 02:22:10;;;;;;;;;;;;;;;2.98;100.00;99918.84;4219544;28;20102;-72
2022/11/11 02:24:15;;;;;;;7.97;4.63;;;;;;;2.93;100.00;99927.16;4217887;28;20317;-72
2022/11/11 02:26:16;;;;;;;12.05;5.40;;;;;;;2.81;100.00;99930.28;4219251;28;20031;-72
2022/11/11 02:28:20;;;;;;;8.93;4.45;;;;;;;2.81;100.00;99930.28;4218635;28;20335;-72
2022/11/11 02:30:20;;;;;;;10.85;4.90;;;;;;;2.74;100.00;99927.09;4219628;28;20048;-72
2022/11/11 02:32:20;;;;;;;9.75;4.40;;;;;;;2.72;100.00;99921.91;4218397;28;20097;-72
2022/11/11 02:34:28;;;;;;;8.80;4.78;;;;;;;2.65;100.00;99932.41;4219136;28;20048;-72
2022/11/11 02:36:29;;;;;;;10.93;5.22;;;;;;;2.60;100.00;99937.91;4219289;28;20423;-71
2022/11/11 02:38:29;;;;;;;8.82;5.22;;;;;;;2.60;100.00;99937.09;4219130;28;20043;-72
2022/11/11 02:40:36;;;;;;;6.32;4.50;;;;;;;2.56;100.00;99938.75;4219185;28;20476;-72
2022/11/11 02:42:36;;;;;;;7.22;4.32;;;;;;;2.53;100.00;99951.91;4218173;28;20055;-72
2022/11/11 02:44:36;;;;;;;10.40;4.75;;;;;;;2.50;100.00;99946.22;4219457;28;20039;-72
2022/11/11 02:46:37;;;;;;;7.97;4.70;;;;;;;2.51;100.00;99945.09;4218954;28;20058;-71
2022/11/11 02:48:37;;;;;;;11.88;5.53;;;;;;;2.50;100.00;99938.84;4218988;28;20484;-72
2022/11/11 02:50:37;;;;;;;8.07;4.55;;;;;;;2.51;100.00;99937.72;4219053;28;20096;-72
2022/11/11 02:52:38;;;;;;;13.18;4.75;;;;;;;2.51;100.00;99935.00;4218328;28;20495;-72
2022/11/11 02:54:39;;;;;;;8.82;4.55;;;;;;;2.57;100.00;99943.97;4218869;28;20126;-72
2022/11/11 02:58:58;;;;;;;9.40;4.78;;;;;;;2.51;100.00;99940.47;4218717;28;20054;-72
2022/11/11 03:00:58;;;;;;;7.63;4.00;;;;;;;2.56;100.00;99946.97;4219209;28;20052;-72
2022/11/11 03:02:59;;;;;;;8.38;4.75;;;;;;;2.63;100.00;99948.25;4219374;28;20650;-72
2022/11/11 03:04:59;;;;;;;7.53;4.47;;;;;;;2.55;100.00;99946.16;4219629;28;20082;-72
2022/11/11 03:07:00;;;;;;;9.35;5.13;;;;;;;2.52;100.00;99947.53;4222011;28;20071;-72
2022/11/11 03:09:00;;;;;;;13.07;4.97;;;;;;;2.55;100.00;99946.16;4221902;28;20047;-72
2022/11/11 03:11:00;;;;;;;8.90;4.32;;;;;;;2.55;100.00;99946.16;4221780;28;20116;-72
2022/11/11 03:13:01;;;;;;;8.88;5.07;;;;;;;2.60;100.00;99948.03;4220869;28;20046;-72
2022/11/11 03:15:01;;;;;;;6.63;3.92;;;;;;;2.62;100.00;99946.63;4222019;28;20043;-72
2022/11/11 03:19:21;;;;;;;7.57;4.25;;;;;;;2.66;100.00;99947.69;4221556;28;20047;-72
2022/11/11 03:21:21;;;;;;;7.97;3.55;;;;;;;2.70;100.00;99947.91;4221871;28;20032;-72
2022/11/11 03:23:21;;;;;;;9.93;3.90;;;;;;;2.71;100.00;99944.88;4221098;28;20048;-72
2022/11/11 03:25:36;;;;;;;6.80;3.72;;;;;;;2.76;100.00;99944.03;4220071;28;20541;-72
2022/11/11 03:27:37;;;;;;;7.63;3.33;;;;;;;2.85;100.00;99953.22;4220917;28;20071;-72
2022/11/11 03:29:37;;;;;;;6.53;3.60;;;;;;;2.86;100.00;99943.09;4221324;28;20059;-72
2022/11/11 03:31:38;;;;;;;8.40;3.50;;;;;;;2.86;100.00;99943.91;4221813;28;20476;-72
2022/11/11 03:33:38;;;;;;;10.07;3.58;;;;;;;2.84;100.00;99939.84;4220309;28;20084;-72
2022/11/11 03:35:39;;;;;;;6.93;3.50;;;;;;;2.83;100.00;99935.47;4221672;28;20043;-72
2022/11/11 03:39:58;;;;;;;7.40;3.47;;;;;;;2.88;100.00;99943.59;4221256;28;20086;-72
2022/11/11 03:41:59;;;;;;;4.97;2.83;;;;;;;2.89;100.00;99935.09;4220949;28;20035;-72
2022/11/11 03:43:59;;;;;;;4.55;2.65;;;;;;;2.90;100.00;99938.69;4220831;28;20597;-71
2022/11/11 03:46:02;;;;;;;5.93;2.90;;;;;;;2.94;100.00;99940.53;4221155;28;20044;-72
2022/11/11 03:48:03;;;;;;;5.00;2.90;;;;;;;2.94;100.00;99918.66;4220634;28;20503;-71
2022/11/11 03:50:04;;;;;;;5.95;2.50;;;;;;;3.00;100.00;99933.88;4221378;28;20038;-72
2022/11/11 03:52:04;;;;;;;10.00;2.60;;;;;;;3.07;100.00;99941.75;4221299;28;20061;-72
2022/11/11 03:54:04;;;;;;;5.05;2.25;;;;;;;3.10;100.00;99935.69;4220084;28;20115;-71
2022/11/11 03:56:05;;;;;;;4.38;1.90;;;;;;;3.15;100.00;99941.09;4220544;28;20104;-72
2022/11/11 03:58:05;;;;;;;6.53;2.50;;;;;;;3.12;100.00;99936.19;4220875;28;20020;-72
2022/11/11 04:00:06;;;;;;;3.08;2.22;;;;;;;3.05;100.00;99939.28;4221166;28;20031;-72
2022/11/11 04:11:35;;;;;;;6.55;2.22;;;;;;;2.82;100.00;99953.78;4220637;28;20774;-72
2022/11/11 04:16:06;;;;;;;3.13;2.15;;;;;;;2.83;100.00;99960.88;4220135;28;20637;-72
2022/11/11 04:18:06;;;;;;;6.60;2.70;;;;;;;2.76;100.00;99953.03;4220352;28;20063;-72
2022/11/11 04:22:27;;;;;;;8.02;2.75;;;;;;;2.68;100.00;99959.13;4220363;28;20112;-72
2022/11/11 04:26:46;;;;;;;6.15;2.60;;;;;;;2.66;100.00;99964.09;4219745;28;20540;-72
2022/11/11 04:31:05;;;;;;;4.65;2.75;;;;;;;2.73;100.00;99970.03;4220362;28;20418;-72
2022/11/11 04:33:09;;;;;;;14.40;2.75;;;;;;;2.72;100.00;99964.81;4201673;28;20044;-72
2022/11/11 04:35:11;;;;;;;5.63;2.28;;;;;;;2.66;100.00;99968.72;4219964;28;20105;-72
2022/11/11 04:37:12;;;;;;;7.00;2.38;;;;;;;2.68;100.00;99980.19;4220602;28;20043;-71
2022/11/11 04:41:31;;;;;;;6.03;3.08;;;;;;;2.52;100.00;99980.34;4220154;28;20541;-71
2022/11/11 04:45:26;;;;;;;5.20;2.72;;;;;;;2.49;100.00;99971.91;4219513;28;20043;-72
2022/11/11 04:45:51;;;;;;;3.80;2.60;;;;;;;2.51;100.00;99969.69;4219493;28;20035;-72
2022/11/11 04:47:59;;;;;;;5.18;2.60;;;;;;;2.59;100.00;99966.34;4220356;28;20118;-72
2022/11/11 04:50:00;;;;;;;4.85;2.28;;;;;;;2.60;100.00;99962.50;4220266;28;20051;-71
2022/11/11 04:54:19;;;;;;;3.35;2.63;;;;;;;2.73;100.00;99967.28;4218853;27;20045;-72
2022/11/11 04:58:38;;;;;;;4.43;3.00;;;;;;;2.69;100.00;99966.22;4220726;28;20454;-72
2022/11/11 05:00:39;;;;;;;7.57;2.67;;;;;;;2.71;100.00;99966.75;4219351;28;20051;-72
2022/11/11 05:04:58;;;;;;;4.60;3.13;;;;;;;2.60;100.00;99964.41;4219374;28;20210;-71
2022/11/11 05:09:17;;;;;;;7.80;2.80;;;;;;;2.46;100.00;99958.81;4219204;28;20047;-71
2022/11/11 05:11:18;;;;;;;5.13;2.83;;;;;;;2.40;100.00;99955.34;4220049;28;20040;-71
2022/11/11 05:22:37;;;;;;;4.43;3.10;;;;;;;2.40;100.00;99949.88;4218920;28;20046;-72
2022/11/11 05:26:56;;;;;;;5.45;3.28;;;;;;;2.33;100.00;99952.13;4218841;28;20050;-71
2022/11/11 05:28:56;;;;;;;7.18;3.03;;;;;;;2.33;100.00;99945.84;4219159;28;20437;-71
2022/11/11 05:30:57;;;;;;;4.85;3.00;;;;;;;2.22;100.00;99943.19;4219196;28;20431;-72
2022/11/11 05:33:01;;;;;;;10.82;3.03;;;;;;;2.15;100.00;99941.88;4218720;28;20075;-72
2022/11/11 05:35:02;;;;;;;4.43;2.40;;;;;;;2.13;100.00;99947.63;4219676;28;20059;-71
2022/11/11 05:37:03;;;;;;;4.90;3.13;;;;;;;2.14;100.00;99938.34;4219435;28;20051;-71
2022/11/11 05:39:03;;;;;;;9.82;2.80;;;;;;;2.09;100.00;99951.25;4218924;28;20078;-71
2022/11/11 05:41:03;;;;;;;8.32;3.28;;;;;;;2.06;100.00;99941.69;4219167;28;20116;-72
2022/11/11 05:43:04;;;;;;;7.30;3.20;;;;;;;2.02;100.00;99937.09;4218437;28;20456;-71
2022/11/11 05:45:04;;;;;;;16.70;4.28;;;;;;;1.99;100.00;99943.97;4219678;28;20055;-72
2022/11/11 05:47:05;;;;;;;7.95;4.30;;;;;;;1.97;100.00;99943.41;4218303;28;20130;-71
2022/11/11 05:49:14;;;;;;;9.98;5.43;;;;;;;1.94;100.00;99944.00;4218768;28;20309;-71
2022/11/11 05:51:26;;;;;;;11.45;5.28;;;;;;;1.94;100.00;99947.53;4219827;28;20508;-71
2022/11/11 05:53:27;;;;;;;9.82;5.32;;;;;;;1.90;100.00;99954.69;4218079;28;20523;-71
2022/11/11 05:55:27;;;;;;;13.48;5.55;;;;;;;1.84;100.00;99947.63;4219491;28;20043;-71
2022/11/11 05:57:27;;;;;;;8.25;5.43;;;;;;;1.87;100.00;99960.69;4219730;28;20282;-72
2022/11/11 05:59:28;;;;;;;11.73;5.13;;;;;;;1.92;100.00;99957.13;4218669;28;20477;-72
2022/11/11 06:01:28;;;;;;;11.63;4.65;;;;;;;1.92;100.00;99966.13;4219007;28;20035;-71
2022/11/11 06:03:28;;;;;;;12.50;4.28;;;;;;;1.95;100.00;99959.25;4219216;28;20806;-71
2022/11/11 06:05:29;;;;;;;20.83;4.57;;;;;;;2.00;100.00;99961.97;4217401;28;20546;-72
2022/11/11 06:07:30;;;;;;;7.63;4.35;;;;;;;1.98;100.00;99969.59;4150642;28;20051;-72
2022/11/11 06:09:30;;;;;;;10.05;4.40;;;;;;;1.95;100.00;99967.44;4217492;28;20123;-71
2022/11/11 06:11:31;;;;;;;9.88;4.13;;;;;;;2.02;100.00;99973.41;4219233;28;20440;-71
2022/11/11 06:13:31;;;;;;;8.13;3.92;;;;;;;2.03;100.00;99974.22;4217970;28;20071;-72
2022/11/11 06:15:32;;;;;;;14.02;4.63;;;;;;;2.02;100.00;99973.41;4219129;28;20035;-72
2022/11/11 06:17:32;;;;;;;17.17;4.72;;;;;;;2.11;100.00;99966.22;4219575;28;20079;-71
2022/11/11 06:19:33;;;;;;;12.98;4.88;;;;;;;2.12;100.00;99967.84;4219001;28;20035;-71
2022/11/11 06:21:55;;;;;;;10.55;3.70;;;;;;;2.06;100.00;99960.00;4219239;28;20086;-71
2022/11/11 06:23:53;;;;;;;6.65;3.28;;;;;;;2.06;100.00;99966.25;4218766;28;20082;-71
2022/11/11 06:26:12;;;;;;;9.88;3.35;;;;;;;2.13;100.00;99964.03;4218980;28;20316;-71
2022/11/11 06:28:13;;;;;;;11.35;3.47;;;;;;;2.11;100.00;99962.69;4219094;28;20035;-72
2022/11/11 06:30:14;;;;;;;6.82;3.30;;;;;;;2.20;100.00;99956.31;4217792;28;20035;-72
2022/11/11 06:32:14;;;;;;;9.45;3.13;;;;;;;2.19;100.00;99959.34;4218024;28;20151;-71
2022/11/11 06:34:15;;;;;;;8.82;3.08;;;;;;;2.23;100.00;99963.13;4218460;28;20732;-72
2022/11/11 06:36:18;;;;;;;12.00;3.35;;;;;;;2.27;100.00;99960.63;4217962;28;20177;-72
2022/11/11 06:38:39;;;;;;;7.55;3.50;;;;;;;2.27;100.00;99966.09;4219519;28;20027;-71
2022/11/11 06:40:41;;;;;;;8.02;3.30;;;;;;;2.27;100.00;99972.38;4220136;28;20086;-71
2022/11/11 06:42:42;;;;;;;9.57;3.38;;;;;;;2.20;100.00;99975.44;4221763;28;20354;-71
2022/11/11 06:44:42;;;;;;;7.10;2.90;;;;;;;2.13;100.00;99966.75;4222092;28;20088;-71
2022/11/11 06:46:42;;;;;;;8.25;3.60;;;;;;;2.13;100.00;99974.94;4222351;28;20611;-71
2022/11/11 06:48:42;;;;;;;15.25;3.67;;;;;;;2.13;100.00;99971.41;4222412;28;20047;-71
2022/11/11 06:50:43;;;;;;;7.88;3.85;;;;;;;2.06;100.00;99976.38;4221635;28;20054;-71
2022/11/11 06:52:44;;;;;;;15.10;3.53;;;;;;;2.07;100.00;99975.25;4221729;28;20082;-71
2022/11/11 06:54:44;;;;;;;6.82;4.05;;;;;;;2.04;100.00;99968.47;4221715;28;20058;-71
2022/11/11 06:56:47;;;;;;;10.02;3.15;;;;;;;2.02;100.00;99972.59;4221997;28;20055;-71
2022/11/11 06:58:47;;;;;;;9.73;3.15;;;;;;;1.98;100.00;99970.41;4222065;28;20036;-71
2022/11/11 07:00:49;;;;;;;8.02;3.60;;;;;;;1.98;100.00;99961.41;4222171;28;20065;-71
2022/11/11 07:02:54;;;;;;;9.20;2.88;;;;;;;1.99;100.00;99960.34;4221857;27;20048;-71
2022/11/11 07:04:54;;;;;;;12.45;3.45;;;;;;;1.97;100.00;99959.78;4220691;28;20043;-71
2022/11/11 07:06:54;;;;;;;8.18;3.70;;;;;;;2.01;100.00;99969.06;4222010;28;20043;-71
2022/11/11 07:08:55;;;;;;;13.45;3.17;;;;;;;2.01;100.00;99966.31;4222032;28;20047;-71
2022/11/11 07:10:55;;;;;;;8.65;3.92;;;;;;;2.04;100.00;99971.19;4203713;28;20047;-71
2022/11/11 07:12:55;;;;;;;9.05;3.72;;;;;;;2.04;100.00;99964.94;4221021;28;20042;-71
2022/11/11 07:14:56;;;;;;;8.15;3.50;;;;;;;2.08;100.00;99971.47;4220650;28;20055;-71
2022/11/11 07:16:56;;;;;;;7.50;3.30;;;;;;;2.14;100.00;99970.28;4218484;28;20044;-71
2022/11/11 07:18:57;;;;;;;5.68;2.83;;;;;;;2.22;100.00;99965.03;4220437;28;20568;-71
2022/11/11 07:20:57;;;;;;;19.63;4.13;;;;;;;2.27;100.00;99966.91;4221549;28;20043;-71
2022/11/11 07:22:57;;;;;;;7.75;3.42;;;;;;;2.33;100.00;99962.22;4219993;28;20072;-71
2022/11/11 07:24:58;;;;;;;8.02;3.50;;;;;;;2.44;100.00;99977.41;4221213;28;20301;-73
2022/11/11 07:26:59;;;;;;;7.25;3.30;;;;;;;2.55;100.00;99978.94;4221593;28;20578;-73
2022/11/11 07:29:00;;;;;;;15.73;3.83;;;;;;;2.60;100.00;99984.34;4221484;28;20751;-73
2022/11/11 07:31:00;;;;;;;8.52;3.65;;;;;;;2.67;100.00;99986.75;4219888;27;20078;-73
2022/11/11 07:33:00;;;;;;;13.20;3.15;;;;;;;2.71;100.00;99982.31;4217215;28;20071;-73
2022/11/11 07:35:01;;;;;;;8.10;3.35;;;;;;;2.75;100.00;99994.31;4218306;28;20036;-73
2022/11/11 07:37:01;;;;;;;8.95;3.92;;;;;;;2.75;100.00;99997.06;4213394;28;20478;-73
2022/11/11 07:39:01;;;;;;;12.10;4.80;;;;;;;2.82;100.00;100005.72;4214172;27;20044;-73
2022/11/11 07:41:02;;;;;;;7.78;4.03;;;;;;;2.85;100.00;99998.88;4219166;28;20078;-73
2022/11/11 07:43:02;;;;;;;9.75;3.97;;;;;;;2.92;100.00;100000.16;4217810;28;20040;-73
2022/11/11 07:45:03;;;;;;;9.70;4.30;;;;;;;2.91;100.00;100004.00;4218412;28;20047;-73
2022/11/11 07:47:03;;;;;;;10.35;4.65;;;;;;;2.99;100.00;100010.75;4218461;28;20067;-72
2022/11/11 07:49:04;;;;;;;9.93;4.07;;;;;;;3.00;100.00;100018.66;4218242;28;20050;-72
2022/11/11 07:51:04;;;;;;;15.23;6.28;;;;;;;3.04;100.00;100010.66;4217274;28;20061;-73
2022/11/11 07:53:05;;;;;;;8.48;4.45;;;;;;;3.07;100.00;100010.09;4218240;28;20130;-72
2022/11/11 07:55:06;;;;;;;10.32;5.07;;;;;;;3.14;100.00;100009.72;4220354;28;20032;-72
2022/11/11 07:57:15;;;;;;;8.55;4.53;;;;;;;3.20;100.00;100017.59;4201503;28;20113;-73
2022/11/11 07:59:16;;;;;;;7.95;4.00;;;;;;;3.25;100.00;100023.00;4219974;28;20047;-73
2022/11/11 08:01:16;;;;;;;10.18;4.35;;;;;;;3.32;100.00;100022.66;4220208;28;20251;-72
2022/11/11 08:03:16;;;;;;;7.07;3.95;;;;;;;3.40;100.00;100022.00;4218924;28;20391;-72
2022/11/11 08:05:17;;;;;;;12.32;4.68;;;;;;;3.50;100.00;100032.81;4219888;28;20047;-72
2022/11/11 08:07:18;;;;;;;9.30;4.78;;;;;;;3.59;100.00;100027.50;4218965;28;20044;-72
2022/11/11 08:09:18;;;;;;;7.20;3.95;;;;;;;3.65;100.00;100024.41;4216521;28;20092;-73
2022/11/11 08:13:39;;;;;;;7.32;3.40;;;;;;;3.76;100.00;100025.09;4219849;28;20047;-72
2022/11/11 08:13:39;;;;;;;10.63;4.63;;;;;;;3.87;100.00;100025.75;4218616;28;20063;-73
2022/11/11 08:15:40;;;;;;;9.38;4.40;;;;;;;3.95;100.00;100022.34;4218937;28;20438;-72
2022/11/11 08:17:40;;;;;;;6.65;3.53;;;;;;;4.06;100.00;100023.03;4219641;28;20053;-72
2022/11/11 08:19:41;;;;;;;7.93;3.95;;;;;;;4.16;100.00;100026.41;4219684;28;20499;-73
2022/11/11 08:21:41;;;;;;;6.65;3.67;;;;;;;4.32;100.00;100032.47;4219582;28;20045;-72
2022/11/11 08:23:41;;;;;;;9.57;3.70;;;;;;;4.59;99.04;100031.72;4218968;28;20067;-72
2022/11/11 08:25:42;;;;;;;9.13;4.03;;;;;;;4.81;99.04;100033.00;4219431;28;20044;-72
2022/11/11 08:27:43;;;;;;;11.02;4.97;;;;;;;4.86;100.00;100030.97;4218613;28;20491;-73
2022/11/11 08:29:43;;;;;;;12.25;4.82;;;;;;;4.92;100.00;100038.00;4219462;28;20150;-72
2022/11/11 08:31:43;;;;;;;10.52;5.40;;;;;;;4.99;99.76;100035.66;4217755;28;20475;-72
2022/11/11 08:33:44;;;;;;;22.85;8.30;;;;;;;5.04;100.00;100040.22;4218999;28;20043;-72
2022/11/11 08:35:44;;;;;;;23.60;9.73;;;;;;;5.11;100.00;100034.34;4218057;28;20043;-73
2022/11/11 08:37:44;;;;;;;19.42;9.43;;;;;;;5.16;100.00;100040.56;4219604;27;20040;-73
2022/11/11 08:39:45;;;;;;;23.08;9.60;;;;;;;5.20;100.00;100040.75;4218832;28;20043;-72
2022/11/11 08:41:45;;;;;;;14.27;7.30;;;;;;;5.25;100.00;100040.66;4218169;28;20032;-73
2022/11/11 08:43:45;;;;;;;16.65;7.07;;;;;;;5.32;100.00;100052.06;4218982;28;20044;-73
2022/11/11 08:45:46;;;;;;;14.10;5.25;;;;;;;5.43;99.42;100041.66;4219011;28;20035;-73
2022/11/11 08:47:46;;;;;;;19.95;8.77;;;;;;;5.54;100.00;100054.88;4219123;28;20081;-73
2022/11/11 08:49:48;;;;;;;15.52;7.35;;;;;;;5.62;100.00;100051.41;4216607;28;20073;-73
2022/11/11 08:51:48;;;;;;;13.70;6.50;;;;;;;5.71;99.94;100062.50;4213655;27;20031;-73
2022/11/11 08:53:48;;;;;;;13.40;6.20;;;;;;;5.80;100.00;100073.59;4210262;28;20034;-73
2022/11/11 08:55:49;;;;;;;13.77;6.50;;;;;;;5.88;100.00;100072.84;4217106;27;20127;-73
2022/11/11 08:58:00;;;;;;;10.93;5.65;;;;;;;5.92;100.00;100073.88;4219526;28;20085;-73
2022/11/11 09:00:02;;;;;;;14.20;6.00;;;;;;;6.03;96.81;100075.28;4218733;28;20339;-72
2022/11/11 09:02:02;;;;;;;9.20;5.10;;;;;;;6.21;93.71;100065.28;4219116;28;20039;-73
2022/11/11 09:04:03;;;;;;;9.68;6.28;;;;;;;6.30;94.70;100063.41;4218859;27;20265;-73
2022/11/11 09:06:03;;;;;;;11.32;5.30;;;;;;;6.38;94.92;100064.59;4219042;28;20499;-73
2022/11/11 09:08:06;;;;;;;9.25;5.47;;;;;;;6.41;94.90;100064.78;4218599;28;20059;-73
2022/11/11 09:10:07;;;;;;;13.23;6.13;;;;;;;6.51;99.35;100068.41;4219043;28;20021;-73
2022/11/11 09:12:08;;;;;;;11.63;4.85;;;;;;;6.55;97.82;100072.16;4218933;28;20048;-73
2022/11/11 09:14:08;;;;;;;10.30;4.88;;;;;;;6.57;95.48;100081.72;4216677;28;20335;-73
2022/11/11 09:16:09;;;;;;;10.00;5.32;;;;;;;6.62;94.04;100076.09;4218992;28;20368;-72
2022/11/11 09:18:09;;;;;;;11.15;5.97;;;;;;;6.71;93.82;100076.97;4218793;28;20015;-72
2022/11/11 09:20:10;;;;;;;8.73;4.60;;;;;;;6.80;92.20;100081.72;4218807;28;20418;-72
2022/11/11 09:22:10;;;;;;;7.40;4.13;;;;;;;6.89;95.53;100077.91;4218385;28;20510;-72
2022/11/11 09:24:11;;;;;;;9.90;3.45;;;;;;;6.99;96.15;100079.56;4218143;28;20015;-72
2022/11/11 09:26:11;;;;;;;9.57;3.30;;;;;;;7.03;96.90;100080.53;4216748;28;20028;-72
2022/11/11 09:28:12;;;;;;;12.25;3.33;;;;;;;7.10;96.62;100080.91;4217876;28;20046;-72
2022/11/11 09:30:12;;;;;;;6.47;2.88;;;;;;;7.14;93.76;100083.84;4201436;28;20535;-72
2022/11/11 09:32:13;;;;;;;6.82;3.65;;;;;;;7.21;93.73;100087.78;4217715;28;20028;-72
2022/11/11 09:34:13;;;;;;;12.07;2.92;;;;;;;7.25;92.94;100091.50;4210454;28;20417;-72
2022/11/11 09:36:14;;;;;;;14.30;3.95;;;;;;;7.40;93.42;100095.00;4216255;28;20027;-72
2022/11/11 09:38:14;;;;;;;8.93;3.10;;;;;;;7.51;95.29;100090.81;4212702;28;20028;-72
2022/11/11 09:40:21;;;;;;;9.60;2.67;;;;;;;7.62;97.16;100092.16;4212922;28;20704;-73
2022/11/11 09:45:35;;;;;;;7.55;2.70;;;;;;;7.97;96.97;100103.28;4202315;27;20042;-72
2022/11/11 09:48:00;;;;;;;5.32;2.85;;;;;;;8.08;96.17;100108.16;4217287;28;20052;-73
2022/11/11 09:50:25;;;;;;;8.10;2.38;;;;;;;8.19;95.79;100111.41;4218710;28;20383;-73
2022/11/11 09:52:30;;;;;;;8.00;2.25;;;;;;;8.27;96.59;100113.34;4200458;28;20158;-72
2022/11/11 09:54:39;;;;;;;7.18;2.17;;;;;;;8.40;95.44;100112.44;4219825;28;20724;-72
2022/11/11 09:56:39;;;;;;;7.35;2.08;;;;;;;8.58;95.09;100118.75;4219027;28;20039;-72
2022/11/11 09:58:45;;;;;;;8.98;2.70;;;;;;;8.72;93.67;100108.38;4218989;28;20050;-72
2022/11/11 10:00:52;;;;;;;3.50;2.10;;;;;;;8.83;92.63;100106.09;4219321;28;20039;-73
2022/11/11 10:02:59;;;;;;;4.88;2.50;;;;;;;8.90;92.97;100100.88;4219482;28;20371;-72
2022/11/11 10:05:21;;;;;;;4.65;2.08;;;;;;;8.97;92.04;100103.16;4219184;28;20426;-72
2022/11/11 10:07:57;;;;;;;5.72;2.15;;;;;;;9.15;91.46;100093.69;4219113;28;20040;-73
2022/11/11 10:10:07;;;;;;;5.10;2.05;;;;;;;9.29;89.62;100090.72;4191504;28;20069;-72
2022/11/11 10:12:11;;;;;;;6.45;2.08;;;;;;;9.42;88.67;100089.69;4218646;28;20122;-73
2022/11/11 10:14:11;;;;;;;2.22;1.48;;;;;;;9.61;84.69;100091.25;4215719;28;20413;-73
2022/11/11 10:16:27;;;;;;;2.42;1.65;;;;;;;10.11;79.22;100086.56;4222022;28;20034;-72
2022/11/11 10:18:42;;;;;;;2.35;1.10;;;;;;;10.50;76.36;100080.91;4221584;28;20075;-72
2022/11/11 10:20:53;;;;;;;1.58;0.88;;;;;;;10.74;75.04;100077.44;4220838;28;20036;-72
2022/11/11 10:23:12;;;;;;;2.60;1.20;;;;;;;10.81;75.19;100074.94;4221648;28;20502;-73
2022/11/11 10:25:12;;;;;;;1.40;0.98;;;;;;;10.93;73.43;100081.34;4222450;28;20467;-72
2022/11/11 10:27:21;;;;;;;3.90;1.33;;;;;;;11.10;73.47;100076.75;4222164;28;20050;-72
2022/11/11 10:29:26;;;;;;;5.15;1.65;;;;;;;11.13;73.21;100073.28;4222116;28;20036;-72
2022/11/11 10:31:27;;;;;;;3.58;1.10;;;;;;;11.15;73.03;100068.22;4221760;28;20048;-72
2022/11/11 10:33:48;;;;;;;1.73;1.20;;;;;;;11.08;73.93;100073.50;4221394;27;20042;-73
2022/11/11 10:35:50;;;;;;;2.85;1.20;;;;;;;11.17;71.23;100074.22;4221710;27;20043;-73
2022/11/11 10:38:09;;;;;;;0.95;0.88;;;;;;;11.38;69.80;100068.59;4221442;28;20122;-73
2022/11/11 10:40:17;;;;;;;2.50;0.80;;;;;;;11.56;68.17;100067.22;4220169;28;20494;-72
2022/11/11 10:42:17;;;;;;;1.70;0.90;;;;;;;11.62;68.37;100071.38;4221903;28;20039;-72
2022/11/11 10:44:23;;;;;;;2.65;0.73;;;;;;;11.65;68.95;100072.66;4221540;28;20019;-73
2022/11/11 10:46:33;;;;;;;2.10;0.98;;;;;;;11.65;68.64;100070.69;4222224;28;20049;-73
2022/11/11 10:48:45;;;;;;;1.88;0.93;;;;;;;11.60;69.54;100068.16;4222295;28;20044;-73